Time;durP1;ratioP1;P1;durP2;ratioP2;P2;SDS_P1;SDS_P2;PMS_P1;PMS_P2;Temp;Humidity;BMP_temperature;BMP_pressure;BME280_temperature;BME280_humidity;BME280_pressure;Samples;Min_cycle;Max_cycle;Signal;HPM_P1;HPM_P2
2022/07/03 00:02:15;;;;;;;5.20;3.47;;;;;;;16.91;nan;96536.50;4996029;28;20202;-70
2022/07/03 00:04:42;;;;;;;5.82;3.17;;;;;;;16.95;nan;96537.72;4996112;28;20214;-70
2022/07/03 00:07:09;;;;;;;5.82;3.40;;;;;;;16.89;nan;96544.72;4993587;28;20860;-70
2022/07/03 00:09:35;;;;;;;6.57;4.65;;;;;;;16.60;nan;96544.34;4995773;28;20241;-70
2022/07/03 00:12:02;;;;;;;6.28;4.38;;;;;;;16.51;nan;96546.41;4995989;28;20234;-70
2022/07/03 00:14:30;;;;;;;6.30;4.35;;;;;;;16.66;nan;96544.34;4995857;28;20229;-70
2022/07/03 00:16:57;;;;;;;7.30;4.60;;;;;;;16.72;nan;96553.34;4995345;28;20230;-70
2022/07/03 00:19:23;;;;;;;8.85;4.88;;;;;;;16.67;nan;96550.47;4996069;28;20786;-70
2022/07/03 00:21:56;;;;;;;9.95;5.53;;;;;;;16.68;nan;96544.94;4995992;28;20206;-70
2022/07/03 00:24:25;;;;;;;6.88;5.10;;;;;;;16.72;nan;96548.81;4995720;28;21187;-70
2022/07/03 00:26:53;;;;;;;6.28;4.68;;;;;;;16.84;nan;96547.19;4997871;28;20296;-70
2022/07/03 00:29:22;;;;;;;7.85;4.80;;;;;;;16.87;nan;96545.94;4999982;28;20222;-71
2022/07/03 00:31:50;;;;;;;5.53;4.25;;;;;;;16.92;nan;96546.16;5000435;28;20719;-70
2022/07/03 00:34:18;;;;;;;6.07;3.90;;;;;;;16.67;nan;96545.97;4998443;28;20210;-71
2022/07/03 00:36:47;;;;;;;4.78;3.30;;;;;;;16.83;nan;96539.41;4998521;28;20675;-71
2022/07/03 00:39:14;;;;;;;4.50;3.17;;;;;;;16.71;nan;96543.72;4999549;28;20231;-71
2022/07/03 00:41:41;;;;;;;5.55;3.35;;;;;;;16.81;nan;96547.56;4999453;28;20206;-71
2022/07/03 00:44:08;;;;;;;8.43;3.42;;;;;;;16.59;nan;96537.38;4999140;28;20572;-70
2022/07/03 00:46:38;;;;;;;4.30;3.00;;;;;;;16.31;nan;96536.78;4999032;28;20203;-71
2022/07/03 00:49:07;;;;;;;8.15;3.17;;;;;;;16.50;nan;96536.78;4999374;28;20246;-71
2022/07/03 00:51:35;;;;;;;5.72;3.33;;;;;;;16.38;nan;96540.28;4998570;28;20910;-70
2022/07/03 00:54:04;;;;;;;9.02;4.18;;;;;;;16.48;nan;96543.31;4998882;28;20203;-71
2022/07/03 00:56:32;;;;;;;9.27;3.90;;;;;;;16.56;nan;96540.47;4999116;28;20202;-70
2022/07/03 00:59:00;;;;;;;6.10;3.70;;;;;;;16.48;nan;96545.97;4999416;28;20234;-71
2022/07/03 01:01:30;;;;;;;8.27;4.85;;;;;;;16.41;nan;96539.84;4999411;28;20218;-71
2022/07/03 01:04:10;;;;;;;7.93;4.97;;;;;;;15.97;nan;96531.63;4998051;28;20207;-71
2022/07/03 01:06:41;;;;;;;5.63;3.67;;;;;;;16.25;nan;96540.22;4996742;28;20221;-70
2022/07/03 01:09:08;;;;;;;4.32;3.17;;;;;;;16.23;nan;96539.63;4999557;28;20225;-70
2022/07/03 01:11:39;;;;;;;4.20;2.58;;;;;;;16.41;nan;96534.53;4996807;28;20674;-71
2022/07/03 01:14:16;;;;;;;5.45;2.80;;;;;;;16.34;nan;96535.56;4997785;28;20752;-71
2022/07/03 01:16:58;;;;;;;5.28;2.80;;;;;;;16.24;nan;96538.59;4998675;28;20218;-71
2022/07/03 01:19:38;;;;;;;3.17;2.38;;;;;;;16.40;nan;96535.56;4998569;28;20284;-70
2022/07/03 01:22:27;;;;;;;3.33;2.13;;;;;;;16.38;nan;96532.31;4998012;28;21112;-70
2022/07/03 01:25:25;;;;;;;5.15;2.17;;;;;;;16.21;nan;96533.69;4997874;28;20281;-71
2022/07/03 01:27:59;;;;;;;3.50;2.10;;;;;;;16.23;nan;96544.09;4998257;28;20199;-71
2022/07/03 01:30:27;;;;;;;8.05;2.22;;;;;;;16.14;nan;96542.66;4998980;28;20195;-70
2022/07/03 01:32:59;;;;;;;2.45;1.80;;;;;;;15.94;nan;96536.53;4998189;28;21266;-70
2022/07/03 01:35:31;;;;;;;4.30;1.90;;;;;;;16.03;nan;96527.34;4998204;28;20280;-70
2022/07/03 01:38:04;;;;;;;3.30;1.88;;;;;;;16.01;nan;96537.34;4997691;28;20712;-70
2022/07/03 01:40:33;;;;;;;3.13;2.22;;;;;;;15.90;nan;96530.78;4998284;28;20308;-71
2022/07/03 01:43:04;;;;;;;4.03;2.00;;;;;;;15.87;nan;96528.56;4996504;28;20245;-70
2022/07/03 01:45:32;;;;;;;2.63;1.90;;;;;;;15.88;nan;96532.84;4997781;28;20336;-71
2022/07/03 01:47:59;;;;;;;4.28;2.00;;;;;;;15.80;nan;96529.56;4998696;28;20210;-70
2022/07/03 01:50:28;;;;;;;2.67;1.90;;;;;;;15.94;nan;96529.38;4998107;28;21062;-70
2022/07/03 01:52:57;;;;;;;3.65;2.10;;;;;;;16.06;nan;96525.09;4996489;28;20698;-71
2022/07/03 01:55:24;;;;;;;4.13;2.15;;;;;;;15.92;nan;96528.75;4998342;28;20210;-70
2022/07/03 01:57:51;;;;;;;2.80;1.75;;;;;;;15.95;nan;96525.69;4998232;28;20210;-71
2022/07/03 02:00:21;;;;;;;7.85;2.00;;;;;;;16.04;nan;96516.50;4997305;28;20729;-70
2022/07/03 02:02:56;;;;;;;5.00;2.03;;;;;;;16.18;nan;96522.66;4997397;28;20207;-70
2022/07/03 02:05:43;;;;;;;2.95;2.20;;;;;;;16.10;nan;96521.00;4998354;28;20213;-70
2022/07/03 02:08:16;;;;;;;3.97;1.88;;;;;;;15.71;nan;96520.13;4995569;28;20241;-70
2022/07/03 02:10:46;;;;;;;2.42;1.77;;;;;;;15.78;nan;96517.50;4997824;28;20206;-71
2022/07/03 02:13:18;;;;;;;3.40;1.80;;;;;;;15.81;nan;96520.56;4997529;28;20214;-70
2022/07/03 02:15:51;;;;;;;3.03;2.10;;;;;;;15.90;nan;96514.84;4997536;28;20206;-70
2022/07/03 02:18:27;;;;;;;2.88;1.95;;;;;;;15.53;nan;96516.41;4997886;28;20850;-70
2022/07/03 02:21:08;;;;;;;12.48;1.90;;;;;;;15.33;nan;96523.50;4997999;28;20741;-70
2022/07/03 02:23:40;;;;;;;2.55;1.98;;;;;;;15.63;nan;96522.16;4996772;28;20225;-70
2022/07/03 02:26:12;;;;;;;6.80;2.03;;;;;;;15.85;nan;96533.22;4997504;28;21289;-70
2022/07/03 02:28:55;;;;;;;4.65;1.98;;;;;;;15.62;nan;96525.84;4997783;28;20226;-70
2022/07/03 02:31:25;;;;;;;3.72;1.60;;;;;;;15.45;nan;96524.56;4997578;28;20288;-70
2022/07/03 02:33:57;;;;;;;2.63;1.90;;;;;;;15.59;nan;96528.88;4996552;28;20333;-70
2022/07/03 02:36:25;;;;;;;4.13;1.83;;;;;;;15.63;nan;96527.47;4997370;28;20203;-70
2022/07/03 02:38:56;;;;;;;2.58;1.90;;;;;;;15.55;nan;96536.44;4997165;28;20226;-70
2022/07/03 02:41:29;;;;;;;2.95;1.98;;;;;;;15.53;nan;96521.72;4997194;28;20694;-70
2022/07/03 02:44:00;;;;;;;4.40;2.00;;;;;;;15.39;nan;96538.66;4996004;28;20213;-70
2022/07/03 02:46:50;;;;;;;2.92;2.03;;;;;;;15.30;nan;96535.34;4997525;28;20203;-70
2022/07/03 02:49:23;;;;;;;4.07;1.90;;;;;;;15.36;nan;96531.91;4996893;28;20226;-70
2022/07/03 02:51:58;;;;;;;3.17;1.73;;;;;;;15.40;nan;96538.44;4996651;28;20206;-70
2022/07/03 02:54:25;;;;;;;4.40;2.17;;;;;;;15.11;nan;96535.22;4996818;28;20205;-70
2022/07/03 02:57:01;;;;;;;5.10;1.80;;;;;;;15.11;nan;96543.19;4994510;28;20203;-70
2022/07/03 02:59:40;;;;;;;4.07;2.28;;;;;;;15.23;nan;96540.81;4996949;28;21032;-70
2022/07/03 03:02:15;;;;;;;2.95;1.90;;;;;;;15.21;nan;96542.84;4996349;28;20210;-70
2022/07/03 03:04:49;;;;;;;3.63;2.10;;;;;;;15.08;nan;96542.75;4997990;28;20228;-70
2022/07/03 03:07:18;;;;;;;4.45;2.33;;;;;;;15.14;nan;96547.28;4994844;28;20717;-70
2022/07/03 03:09:48;;;;;;;6.00;2.50;;;;;;;15.24;nan;96548.59;4996033;28;20233;-70
2022/07/03 03:12:16;;;;;;;4.00;2.30;;;;;;;15.26;nan;96558.00;4996716;28;20581;-70
2022/07/03 03:14:44;;;;;;;3.95;2.40;;;;;;;15.40;nan;96553.53;4996132;28;20635;-70
2022/07/03 03:17:18;;;;;;;3.63;2.40;;;;;;;15.55;nan;96543.59;4996353;28;20199;-70
2022/07/03 03:19:49;;;;;;;4.78;2.50;;;;;;;15.49;nan;96539.91;4995963;28;20233;-70
2022/07/03 03:22:28;;;;;;;5.13;2.40;;;;;;;15.68;nan;96540.97;4995754;28;20346;-70
2022/07/03 03:24:55;;;;;;;3.42;2.25;;;;;;;15.65;nan;96536.06;4995724;28;20202;-70
2022/07/03 03:27:22;;;;;;;2.75;2.45;;;;;;;15.49;nan;96545.22;4996120;28;20675;-70
2022/07/03 03:29:50;;;;;;;4.40;2.50;;;;;;;15.54;nan;96534.81;4995311;28;20215;-70
2022/07/03 03:32:18;;;;;;;4.22;2.78;;;;;;;15.71;nan;96545.91;4995604;28;20206;-70
2022/07/03 03:34:46;;;;;;;6.38;3.13;;;;;;;15.51;nan;96540.50;4996251;28;20580;-70
2022/07/03 03:37:13;;;;;;;7.78;3.22;;;;;;;15.39;nan;96547.41;4995954;28;20207;-70
2022/07/03 03:39:40;;;;;;;4.10;2.80;;;;;;;15.63;nan;96549.56;4995434;28;20582;-70
2022/07/03 03:42:08;;;;;;;3.95;3.05;;;;;;;15.67;nan;96545.47;4996116;28;20206;-70
2022/07/03 03:44:35;;;;;;;4.53;2.75;;;;;;;15.79;nan;96553.69;4995854;28;20202;-71
2022/07/03 03:47:02;;;;;;;4.28;2.78;;;;;;;15.74;nan;96562.22;4995388;28;20202;-71
2022/07/03 03:49:30;;;;;;;6.13;2.97;;;;;;;15.97;nan;96557.38;4995920;28;20230;-71
2022/07/03 03:51:57;;;;;;;7.55;3.17;;;;;;;15.90;nan;96559.22;4995477;28;20230;-70
2022/07/03 03:54:24;;;;;;;3.55;2.45;;;;;;;15.77;nan;96559.19;4995199;28;20261;-71
2022/07/03 03:56:50;;;;;;;4.07;2.97;;;;;;;15.72;nan;96563.47;4995735;28;20579;-71
2022/07/03 03:59:17;;;;;;;6.50;2.90;;;;;;;15.71;nan;96554.69;4996443;28;20563;-70
2022/07/03 04:01:45;;;;;;;3.95;3.13;;;;;;;15.72;nan;96555.47;4999088;28;20718;-70
2022/07/03 04:04:17;;;;;;;7.07;2.88;;;;;;;15.64;nan;96563.66;4998961;28;20198;-71
2022/07/03 04:06:45;;;;;;;4.85;3.00;;;;;;;15.77;nan;96575.16;4997702;28;20293;-71
2022/07/03 04:09:11;;;;;;;3.90;2.78;;;;;;;15.73;nan;96565.91;4999528;28;20223;-71
2022/07/03 04:11:38;;;;;;;9.13;2.90;;;;;;;15.69;nan;96567.34;4998779;28;20198;-71
2022/07/03 04:14:04;;;;;;;4.60;3.20;;;;;;;15.74;nan;96566.75;4999528;28;20200;-71
2022/07/03 04:16:31;;;;;;;7.50;3.05;;;;;;;15.68;nan;96563.06;4999180;28;20207;-71
2022/07/03 04:18:57;;;;;;;6.75;3.00;;;;;;;15.65;nan;96565.28;4998623;28;20226;-71
2022/07/03 04:21:24;;;;;;;6.63;3.50;;;;;;;15.87;nan;96562.25;4999833;28;20591;-71
2022/07/03 04:23:52;;;;;;;5.13;3.15;;;;;;;15.97;nan;96563.53;4998239;28;20686;-71
2022/07/03 04:26:18;;;;;;;8.63;2.85;;;;;;;15.90;nan;96565.34;4999261;28;20202;-70
2022/07/03 04:28:45;;;;;;;7.43;3.60;;;;;;;15.83;nan;96568.19;4998964;28;20222;-70
2022/07/03 04:31:11;;;;;;;5.32;3.40;;;;;;;16.00;nan;96567.63;4999281;28;20203;-70
2022/07/03 04:33:38;;;;;;;5.28;3.67;;;;;;;15.99;nan;96572.09;4998234;28;20659;-70
2022/07/03 04:36:05;;;;;;;6.90;4.00;;;;;;;16.21;nan;96565.59;4999122;28;20203;-69
2022/07/03 04:38:31;;;;;;;6.20;3.80;;;;;;;16.36;nan;96571.56;4998753;28;20745;-70
2022/07/03 04:40:59;;;;;;;4.30;3.05;;;;;;;16.66;nan;96575.44;4999390;28;20608;-72
2022/07/03 04:43:26;;;;;;;4.40;3.25;;;;;;;16.74;nan;96572.59;4998882;28;20207;-72
2022/07/03 04:45:52;;;;;;;6.07;3.78;;;;;;;16.65;nan;96573.81;4999516;28;20205;-72
2022/07/03 04:48:19;;;;;;;4.65;3.40;;;;;;;16.80;nan;96575.25;4997444;28;20218;-72
2022/07/03 04:50:45;;;;;;;7.38;3.50;;;;;;;16.88;nan;96579.50;4998941;28;20686;-72
2022/07/03 04:53:12;;;;;;;4.40;3.25;;;;;;;17.12;nan;96574.34;4998925;28;20203;-72
2022/07/03 04:55:38;;;;;;;5.03;3.13;;;;;;;17.25;nan;96583.16;4999209;28;20207;-72
2022/07/03 04:58:06;;;;;;;3.95;2.97;;;;;;;17.49;nan;96571.78;4999151;28;20789;-72
2022/07/03 05:00:32;;;;;;;5.07;3.00;;;;;;;17.71;nan;96575.00;4998998;28;20238;-72
2022/07/03 05:03:00;;;;;;;5.55;3.50;;;;;;;17.69;nan;96569.84;4998281;28;20209;-72
2022/07/03 05:05:26;;;;;;;4.38;2.90;;;;;;;17.85;nan;96572.03;4999344;28;20203;-72
2022/07/03 05:07:53;;;;;;;5.00;3.08;;;;;;;17.90;nan;96566.88;4999369;28;20202;-72
2022/07/03 05:10:19;;;;;;;7.82;3.03;;;;;;;18.08;nan;96574.97;4998842;28;20213;-72
2022/07/03 05:12:46;;;;;;;3.58;2.92;;;;;;;17.87;nan;96580.63;4997528;28;20447;-72
2022/07/03 05:15:13;;;;;;;3.88;2.90;;;;;;;18.22;nan;96584.56;4998671;28;20203;-72
2022/07/03 05:17:40;;;;;;;4.72;3.50;;;;;;;18.09;nan;96588.09;4999012;28;20215;-71
2022/07/03 05:20:28;;;;;;;8.40;2.97;;;;;;;18.19;nan;96598.31;4998724;28;20219;-72
2022/07/03 05:22:55;;;;;;;7.72;3.33;;;;;;;18.04;nan;96584.44;4997203;28;20206;-72
2022/07/03 05:25:22;;;;;;;4.95;3.08;;;;;;;18.31;nan;96592.06;4998295;28;21054;-72
2022/07/03 05:27:50;;;;;;;4.43;3.00;;;;;;;18.43;nan;96588.50;4999131;28;20210;-72
2022/07/03 05:30:18;;;;;;;4.88;3.38;;;;;;;18.79;nan;96593.97;4997787;28;20198;-72
2022/07/03 05:32:44;;;;;;;4.50;3.10;;;;;;;18.85;nan;96594.94;4998150;28;20207;-72
2022/07/03 05:35:11;;;;;;;4.70;3.10;;;;;;;18.80;nan;96594.75;4998618;28;20198;-72
2022/07/03 05:37:37;;;;;;;6.60;3.20;;;;;;;18.84;nan;96598.63;4998685;28;20225;-72
2022/07/03 05:40:05;;;;;;;5.00;3.30;;;;;;;18.89;nan;96596.97;4997608;28;20222;-72
2022/07/03 05:42:31;;;;;;;4.70;3.30;;;;;;;18.41;nan;96598.56;4997935;28;20605;-72
2022/07/03 05:44:58;;;;;;;6.70;2.70;;;;;;;18.56;nan;96599.06;4998845;28;20199;-72
2022/07/03 05:47:26;;;;;;;6.03;3.55;;;;;;;18.80;nan;96600.94;4998073;28;20206;-72
2022/07/03 05:49:52;;;;;;;5.85;3.45;;;;;;;18.80;nan;96595.59;4995655;28;20229;-72
2022/07/03 05:52:19;;;;;;;5.60;2.85;;;;;;;18.77;nan;96600.56;4998762;28;20198;-71
2022/07/03 05:54:45;;;;;;;3.97;3.05;;;;;;;18.68;nan;96597.31;4997030;28;20206;-72
2022/07/03 05:57:12;;;;;;;5.93;3.35;;;;;;;18.58;nan;96599.69;4998007;28;21221;-72
2022/07/03 05:59:39;;;;;;;6.32;3.08;;;;;;;18.86;nan;96599.25;4997722;28;20281;-72
2022/07/03 06:02:06;;;;;;;4.60;2.67;;;;;;;19.22;nan;96597.47;4997829;28;20706;-72
2022/07/03 06:04:34;;;;;;;4.95;3.20;;;;;;;19.35;nan;96600.03;4996667;28;20207;-72
2022/07/03 06:07:00;;;;;;;5.30;2.60;;;;;;;19.45;nan;96603.81;4997037;28;20210;-72
2022/07/03 06:09:27;;;;;;;7.72;2.83;;;;;;;19.55;nan;96593.38;4997955;28;20227;-73
2022/07/03 06:11:53;;;;;;;4.63;3.35;;;;;;;19.54;nan;96596.28;4995949;28;20198;-72
2022/07/03 06:14:20;;;;;;;6.03;3.40;;;;;;;19.59;nan;96598.06;4997267;28;20697;-71
2022/07/03 06:16:46;;;;;;;4.75;2.78;;;;;;;19.62;nan;96602.97;4997285;28;20218;-70
2022/07/03 06:19:13;;;;;;;3.70;2.83;;;;;;;19.77;nan;96606.09;4997257;28;20252;-70
2022/07/03 06:21:41;;;;;;;6.30;3.13;;;;;;;19.90;nan;96605.91;4996997;28;20222;-70
2022/07/03 06:24:07;;;;;;;5.25;2.92;;;;;;;20.01;nan;96604.34;4996286;28;20198;-70
2022/07/03 06:26:34;;;;;;;5.68;2.80;;;;;;;20.13;nan;96598.03;4996639;28;20223;-70
2022/07/03 06:29:00;;;;;;;3.95;2.90;;;;;;;20.09;nan;96604.06;4997771;28;20612;-70
2022/07/03 06:31:27;;;;;;;4.22;2.72;;;;;;;20.22;nan;96600.13;4997427;28;20202;-71
2022/07/03 06:33:53;;;;;;;7.57;3.05;;;;;;;20.49;nan;96598.72;4997073;28;20237;-71
2022/07/03 06:36:19;;;;;;;4.72;3.22;;;;;;;20.13;nan;96608.72;4997565;28;20199;-70
2022/07/03 06:38:47;;;;;;;4.88;3.08;;;;;;;20.48;nan;96593.59;4997287;28;20237;-70
2022/07/03 06:41:14;;;;;;;3.95;2.63;;;;;;;20.47;nan;96602.69;4997705;28;20230;-72
2022/07/03 06:43:40;;;;;;;3.33;2.58;;;;;;;20.55;nan;96605.03;4996858;28;20213;-72
2022/07/03 06:46:07;;;;;;;7.20;2.92;;;;;;;20.64;nan;96596.41;4997511;28;20202;-73
2022/07/03 06:48:33;;;;;;;5.07;3.08;;;;;;;20.82;nan;96598.22;4994427;28;20222;-73
2022/07/03 06:51:00;;;;;;;3.72;2.65;;;;;;;20.79;nan;96593.34;4995386;28;20230;-72
2022/07/03 06:53:26;;;;;;;3.50;2.60;;;;;;;20.90;nan;96591.47;4992792;28;20202;-72
2022/07/03 06:55:54;;;;;;;5.35;3.13;;;;;;;21.24;nan;96592.53;4997024;28;20195;-72
2022/07/03 06:58:21;;;;;;;3.00;2.70;;;;;;;21.29;nan;96590.75;4996883;28;20222;-72
2022/07/03 07:00:47;;;;;;;7.38;2.83;;;;;;;21.29;nan;96596.13;4995288;28;20963;-73
2022/07/03 07:03:13;;;;;;;4.20;2.45;;;;;;;21.41;nan;96593.44;4995677;28;20885;-73
2022/07/03 07:05:40;;;;;;;3.25;2.50;;;;;;;21.56;nan;96592.75;4995838;28;20206;-73
2022/07/03 07:08:06;;;;;;;3.22;2.20;;;;;;;21.57;nan;96604.28;4995991;28;20202;-72
2022/07/03 07:10:33;;;;;;;2.92;2.05;;;;;;;21.81;nan;96595.94;4996369;28;20210;-73
2022/07/03 07:13:01;;;;;;;3.13;2.33;;;;;;;22.03;nan;96593.44;4996003;28;20225;-72
2022/07/03 07:15:27;;;;;;;3.70;2.30;;;;;;;22.13;nan;96606.03;4995860;28;20198;-72
2022/07/03 07:17:54;;;;;;;4.13;2.20;;;;;;;22.07;nan;96596.22;4995967;28;20203;-72
2022/07/03 07:20:20;;;;;;;3.13;2.10;;;;;;;22.26;nan;96597.69;4996408;28;20202;-72
2022/07/03 07:22:46;;;;;;;5.45;2.00;;;;;;;22.28;nan;96594.78;4995003;28;20495;-72
2022/07/03 07:25:13;;;;;;;3.38;2.10;;;;;;;22.48;nan;96595.13;4996714;28;20210;-72
2022/07/03 07:27:39;;;;;;;2.45;1.77;;;;;;;22.78;nan;96601.84;4995920;28;20207;-72
2022/07/03 07:30:09;;;;;;;3.00;2.20;;;;;;;22.88;nan;96599.31;4996348;28;20315;-72
2022/07/03 07:32:35;;;;;;;2.38;1.90;;;;;;;23.09;nan;96601.28;4995109;28;20210;-72
2022/07/03 07:35:02;;;;;;;4.45;2.38;;;;;;;23.03;nan;96604.97;4997486;28;20645;-72
2022/07/03 07:37:28;;;;;;;3.28;1.80;;;;;;;22.90;nan;96602.59;4999657;28;20604;-72
2022/07/03 07:39:55;;;;;;;2.53;1.80;;;;;;;22.98;nan;96602.97;5000426;28;20726;-72
2022/07/03 07:42:21;;;;;;;1.85;1.45;;;;;;;22.94;nan;96596.47;4999247;28;20229;-72
2022/07/03 07:44:47;;;;;;;4.45;1.88;;;;;;;23.15;nan;96595.75;4999947;28;20206;-72
2022/07/03 07:47:15;;;;;;;2.67;2.05;;;;;;;23.32;nan;96596.56;5000315;28;20206;-72
2022/07/03 07:49:42;;;;;;;2.20;1.75;;;;;;;23.34;nan;96594.41;4997280;28;20478;-72
2022/07/03 07:52:08;;;;;;;4.30;2.10;;;;;;;23.54;nan;96600.91;4999965;28;20671;-73
2022/07/03 07:54:34;;;;;;;5.57;1.95;;;;;;;23.65;nan;96588.38;4998821;28;20675;-72
2022/07/03 07:57:01;;;;;;;2.75;1.75;;;;;;;23.85;nan;96592.19;4999964;28;20203;-73
2022/07/03 07:59:27;;;;;;;3.25;2.03;;;;;;;23.87;nan;96584.69;4999683;28;20284;-72
2022/07/03 08:07:23;;;;;;;4.82;2.03;;;;;;;24.28;nan;96576.78;4999841;28;20244;-72
2022/07/03 08:09:52;;;;;;;2.70;1.70;;;;;;;24.39;nan;96578.56;4998795;28;20717;-72
2022/07/03 08:12:19;;;;;;;2.08;1.77;;;;;;;24.43;nan;96576.19;4999551;28;20452;-72
2022/07/03 08:14:46;;;;;;;2.40;1.52;;;;;;;24.42;nan;96571.88;4999105;28;20218;-72
2022/07/03 08:17:12;;;;;;;1.90;1.40;;;;;;;24.56;nan;96571.97;4999713;28;20199;-72
2022/07/03 08:19:40;;;;;;;2.58;1.70;;;;;;;24.82;nan;96573.84;4998796;28;20230;-73
2022/07/03 08:22:06;;;;;;;2.67;1.48;;;;;;;24.83;nan;96578.16;4998976;28;20237;-73
2022/07/03 08:24:33;;;;;;;1.80;1.40;;;;;;;24.83;nan;96567.38;4998721;28;20203;-73
2022/07/03 08:26:59;;;;;;;2.03;1.30;;;;;;;24.76;nan;96574.06;4999077;28;20670;-72
2022/07/03 08:29:27;;;;;;;1.52;1.30;;;;;;;24.90;nan;96576.06;4999378;28;20695;-72
2022/07/03 08:31:54;;;;;;;2.30;1.50;;;;;;;24.95;nan;96572.59;4998879;28;20194;-73
2022/07/03 08:34:20;;;;;;;1.42;1.33;;;;;;;25.25;nan;96571.78;4998366;28;20207;-73
2022/07/03 08:36:48;;;;;;;4.55;1.38;;;;;;;25.51;nan;96572.72;4998904;28;20209;-72
2022/07/03 08:39:14;;;;;;;1.63;1.48;;;;;;;25.40;nan;96573.75;4998634;28;20237;-72
2022/07/03 08:41:42;;;;;;;2.80;1.52;;;;;;;25.76;nan;96567.50;4998348;28;20241;-73
2022/07/03 08:44:09;;;;;;;2.25;1.33;;;;;;;25.62;nan;96571.72;4998274;28;20203;-72
2022/07/03 08:46:36;;;;;;;1.98;1.40;;;;;;;25.38;nan;96568.63;4997699;28;20879;-73
2022/07/03 08:49:03;;;;;;;4.97;1.40;;;;;;;25.71;nan;96568.28;4996464;28;20222;-73
2022/07/03 08:51:30;;;;;;;2.10;1.40;;;;;;;25.74;nan;96569.63;4998151;28;20433;-73
2022/07/03 08:54:00;;;;;;;5.88;1.20;;;;;;;25.89;nan;96565.94;4998056;28;20203;-73
2022/07/03 08:56:27;;;;;;;1.40;1.20;;;;;;;25.67;nan;96567.16;4997921;28;20206;-72
2022/07/03 08:58:55;;;;;;;2.25;1.05;;;;;;;25.85;nan;96567.56;4998160;28;20242;-73
2022/07/03 09:01:22;;;;;;;1.38;1.20;;;;;;;25.73;nan;96568.03;4998187;28;20501;-72
2022/07/03 09:03:49;;;;;;;1.63;1.20;;;;;;;26.00;nan;96569.50;4998040;28;20206;-72
2022/07/03 09:06:17;;;;;;;2.05;1.30;;;;;;;26.14;nan;96568.72;4998278;28;20674;-73
2022/07/03 09:08:44;;;;;;;1.20;1.10;;;;;;;26.28;nan;96569.84;4998331;28;20226;-73
2022/07/03 09:11:12;;;;;;;1.63;1.38;;;;;;;26.19;nan;96570.63;4997729;28;20202;-73
2022/07/03 09:13:39;;;;;;;3.55;1.30;;;;;;;26.35;nan;96573.16;4998156;28;20207;-72
2022/07/03 09:16:05;;;;;;;2.25;1.33;;;;;;;26.10;nan;96561.44;4998145;28;20232;-73
2022/07/03 09:18:40;;;;;;;1.25;1.08;;;;;;;26.27;nan;96562.00;4998262;28;20226;-73
2022/07/03 09:21:08;;;;;;;1.15;1.05;;;;;;;26.21;nan;96563.88;4998277;28;20551;-72
2022/07/03 09:23:37;;;;;;;1.85;1.17;;;;;;;26.66;nan;96564.81;4997826;28;20321;-73
2022/07/03 09:26:04;;;;;;;1.42;1.10;;;;;;;26.43;nan;96572.63;4997515;28;20277;-73
2022/07/03 09:28:47;;;;;;;1.00;0.90;;;;;;;26.43;nan;96571.81;4997961;28;20882;-72
2022/07/03 09:31:15;;;;;;;1.00;0.90;;;;;;;26.58;nan;96569.94;4998966;28;20217;-72
2022/07/03 09:33:53;;;;;;;1.75;1.10;;;;;;;27.09;nan;96567.03;4996889;28;20218;-73
2022/07/03 09:36:22;;;;;;;1.10;0.95;;;;;;;27.07;nan;96568.38;4997590;28;20654;-73
2022/07/03 09:38:48;;;;;;;1.08;0.90;;;;;;;26.88;nan;96569.97;4997872;28;20225;-73
2022/07/03 09:41:15;;;;;;;2.50;1.05;;;;;;;27.16;nan;96581.91;4998384;28;20202;-73
2022/07/03 09:43:43;;;;;;;1.08;0.93;;;;;;;27.40;nan;96563.97;4995984;28;20237;-73
2022/07/03 09:46:12;;;;;;;1.30;1.20;;;;;;;27.38;nan;96573.47;4997613;28;20957;-73
2022/07/03 09:48:41;;;;;;;2.25;0.90;;;;;;;27.53;nan;96573.44;4995133;28;20226;-73
2022/07/03 09:51:23;;;;;;;2.50;1.20;;;;;;;27.24;nan;96562.41;4997841;28;20238;-73
2022/07/03 09:53:55;;;;;;;1.00;0.90;;;;;;;27.32;nan;96567.25;4996784;28;20289;-73
2022/07/03 09:56:23;;;;;;;1.13;0.80;;;;;;;27.59;nan;96564.25;4997771;28;20667;-73
2022/07/03 09:59:10;;;;;;;1.27;0.90;;;;;;;27.95;nan;96558.44;4996974;28;20218;-73
2022/07/03 10:01:40;;;;;;;1.17;0.80;;;;;;;28.17;nan;96559.72;4997012;28;20225;-73
2022/07/03 10:04:15;;;;;;;1.00;0.90;;;;;;;28.16;nan;96554.59;4996876;28;20214;-73
2022/07/03 10:06:52;;;;;;;1.92;0.73;;;;;;;28.12;nan;96550.75;4996176;28;20213;-73
2022/07/03 10:09:20;;;;;;;1.27;0.85;;;;;;;28.00;nan;96553.00;4997216;28;20222;-72
2022/07/03 10:11:47;;;;;;;1.00;0.80;;;;;;;27.94;nan;96545.97;4997242;28;20207;-72
2022/07/03 10:14:16;;;;;;;0.60;0.60;;;;;;;27.99;nan;96551.38;4996271;28;20217;-73
2022/07/03 10:16:44;;;;;;;0.82;0.80;;;;;;;28.19;nan;96540.47;4996899;28;20697;-73
2022/07/03 10:19:15;;;;;;;0.88;0.85;;;;;;;28.23;nan;96541.53;4997256;28;20313;-73
2022/07/03 10:21:44;;;;;;;2.47;0.90;;;;;;;28.33;nan;96537.69;4996636;28;20690;-73
2022/07/03 10:24:12;;;;;;;1.10;1.00;;;;;;;28.61;nan;96545.06;4996290;28;20264;-73
2022/07/03 10:26:40;;;;;;;0.90;0.80;;;;;;;28.30;nan;96536.59;4996715;28;20296;-73
2022/07/03 10:29:10;;;;;;;0.88;0.75;;;;;;;28.71;nan;96546.91;4996881;28;20390;-73
2022/07/03 10:31:37;;;;;;;0.82;0.70;;;;;;;28.36;nan;96545.25;4997100;28;20205;-72
2022/07/03 10:34:05;;;;;;;1.15;0.85;;;;;;;28.17;nan;96542.63;4996336;28;20689;-73
2022/07/03 10:36:35;;;;;;;1.48;0.80;;;;;;;28.43;nan;96534.88;4996522;28;20222;-73
2022/07/03 10:39:07;;;;;;;0.77;0.77;;;;;;;28.38;nan;96537.63;4996552;28;20687;-73
2022/07/03 10:47:04;;;;;;;1.45;0.80;;;;;;;28.67;nan;96535.81;4996185;28;20213;-73
2022/07/03 10:49:32;;;;;;;1.02;0.73;;;;;;;28.73;nan;96529.28;4994178;28;20638;-73
2022/07/03 10:52:00;;;;;;;0.70;0.70;;;;;;;28.90;nan;96535.13;4997499;28;20551;-73
2022/07/03 10:54:28;;;;;;;0.70;0.70;;;;;;;29.30;nan;96534.75;4995520;28;20214;-73
2022/07/03 10:57:21;;;;;;;2.55;0.93;;;;;;;29.71;nan;96534.88;4995771;28;20198;-74
2022/07/03 11:00:18;;;;;;;2.90;0.70;;;;;;;29.90;nan;96522.16;4996585;28;20237;-73
2022/07/03 11:02:47;;;;;;;1.38;0.75;;;;;;;29.28;nan;96526.88;4995412;28;20257;-73
2022/07/03 11:05:26;;;;;;;1.50;0.73;;;;;;;29.83;nan;96524.38;4995914;28;20729;-73
2022/07/03 11:08:12;;;;;;;0.77;0.63;;;;;;;30.21;nan;96521.47;4996549;28;20579;-73
2022/07/03 11:10:43;;;;;;;0.90;0.70;;;;;;;29.73;nan;96524.50;4995287;28;20234;-73
2022/07/03 11:13:20;;;;;;;0.80;0.80;;;;;;;29.79;nan;96520.63;4995545;28;20281;-73
2022/07/03 11:15:49;;;;;;;0.90;0.73;;;;;;;29.17;nan;96528.06;4995664;28;20213;-72
2022/07/03 11:18:18;;;;;;;1.60;0.80;;;;;;;29.15;nan;96518.59;4996197;28;20222;-72
2022/07/03 11:21:07;;;;;;;1.27;0.80;;;;;;;29.64;nan;96509.94;4995988;28;20241;-72
2022/07/03 11:23:41;;;;;;;0.80;0.80;;;;;;;30.00;nan;96515.78;4995301;28;20223;-73
2022/07/03 11:26:22;;;;;;;1.20;0.80;;;;;;;30.51;nan;96512.09;4996634;28;20209;-72
2022/07/03 11:28:49;;;;;;;0.70;0.70;;;;;;;30.51;nan;96512.09;4995425;28;20229;-73
2022/07/03 11:31:18;;;;;;;1.45;0.88;;;;;;;30.53;nan;96516.13;4996783;28;20221;-73
2022/07/03 11:33:45;;;;;;;1.00;0.77;;;;;;;29.71;nan;96507.69;4995309;28;20203;-72
2022/07/03 11:36:25;;;;;;;1.10;0.70;;;;;;;29.51;nan;96500.91;4995575;28;20206;-72
2022/07/03 11:39:04;;;;;;;6.60;0.90;;;;;;;30.09;nan;96500.44;4995859;28;20261;-73
2022/07/03 11:41:45;;;;;;;2.42;0.80;;;;;;;30.25;nan;96497.22;4996023;28;20199;-73
2022/07/03 11:44:19;;;;;;;1.35;0.95;;;;;;;30.44;nan;96496.16;4995620;28;20222;-73
2022/07/03 11:46:51;;;;;;;1.20;0.98;;;;;;;30.50;nan;96488.72;4995641;28;20214;-73
2022/07/03 11:49:19;;;;;;;0.93;0.80;;;;;;;30.35;nan;96488.94;4992881;28;20722;-73
2022/07/03 11:51:57;;;;;;;1.00;0.90;;;;;;;30.50;nan;96488.72;4995361;28;20462;-73
2022/07/03 11:54:23;;;;;;;0.68;0.68;;;;;;;30.59;nan;96486.94;4995344;28;20205;-73
2022/07/03 11:56:50;;;;;;;1.10;0.80;;;;;;;30.82;nan;96494.19;4996402;28;20206;-73
2022/07/03 11:59:17;;;;;;;0.65;0.55;;;;;;;31.15;nan;96477.56;4995227;28;20574;-73
2022/07/03 12:01:44;;;;;;;1.42;0.60;;;;;;;30.72;nan;96486.22;4994790;28;20867;-73
2022/07/03 12:04:13;;;;;;;0.70;0.70;;;;;;;30.51;nan;96498.50;4995924;28;20551;-72
2022/07/03 12:06:41;;;;;;;1.00;0.80;;;;;;;30.45;nan;96486.88;4995692;28;20217;-72
2022/07/03 12:09:20;;;;;;;0.70;0.60;;;;;;;30.56;nan;96476.66;4995634;28;20240;-73
2022/07/03 12:12:06;;;;;;;2.35;0.80;;;;;;;31.00;nan;96477.84;4994593;28;20268;-73
2022/07/03 12:14:41;;;;;;;0.80;0.75;;;;;;;31.02;nan;96484.63;4994918;28;20289;-73